createdAt,value
2022-09-22T00:00:56.834Z,4.43
2022-09-22T00:03:24.044Z,6.45
2022-09-22T00:05:51.147Z,4.13
2022-09-22T00:08:18.258Z,4.72
2022-09-22T00:10:45.355Z,3.85
2022-09-22T00:13:12.493Z,4.50
2022-09-22T00:15:45.791Z,3.60
2022-09-22T00:18:12.998Z,5.70
2022-09-22T00:20:40.195Z,4.22
2022-09-22T00:23:07.319Z,4.15
2022-09-22T00:25:34.729Z,4.60
2022-09-22T00:28:02.608Z,4.25
2022-09-22T00:30:31.236Z,5.35
2022-09-22T00:32:59.495Z,5.80
2022-09-22T00:35:26.618Z,4.10
2022-09-22T00:37:53.727Z,3.63
2022-09-22T00:40:20.924Z,6.82
2022-09-22T00:42:49.640Z,5.05
2022-09-22T00:45:16.751Z,4.47
2022-09-22T00:47:45.088Z,6.00
2022-09-22T00:50:12.222Z,4.38
2022-09-22T00:52:42.532Z,5.50
2022-09-22T00:55:13.759Z,7.68
2022-09-22T00:57:41.420Z,5.35
2022-09-22T01:00:10.082Z,5.03
2022-09-22T01:02:37.822Z,4.47
2022-09-22T01:05:05.375Z,7.05
2022-09-22T01:07:32.671Z,5.28
2022-09-22T01:10:00.064Z,4.45
2022-09-22T01:12:28.371Z,5.75
2022-09-22T01:15:14.265Z,6.05
2022-09-22T01:18:00.257Z,4.70
2022-09-22T01:20:46.271Z,5.22
2022-09-22T01:23:24.439Z,3.60
2022-09-22T01:25:51.570Z,5.20
2022-09-22T01:28:37.167Z,4.80
2022-09-22T01:31:12.755Z,5.03
2022-09-22T01:33:39.850Z,6.38
2022-09-22T01:36:10.108Z,3.63
2022-09-22T01:38:41.946Z,3.63
2022-09-22T01:41:12.803Z,5.57
2022-09-22T01:43:44.029Z,3.55
2022-09-22T01:46:20.507Z,5.05
2022-09-22T01:48:49.459Z,4.38
2022-09-22T01:51:19.818Z,4.68
2022-09-22T01:53:53.213Z,3.70
2022-09-22T01:56:21.741Z,4.60
2022-09-22T01:58:55.016Z,6.72
2022-09-22T02:01:26.432Z,4.70
2022-09-22T02:03:53.606Z,5.35
2022-09-22T02:06:23.215Z,4.78
2022-09-22T02:09:07.341Z,4.60
2022-09-22T02:11:34.681Z,5.03
2022-09-22T02:14:02.572Z,6.25
2022-09-22T02:16:30.018Z,5.75
2022-09-22T02:19:13.304Z,5.60
2022-09-22T02:21:41.721Z,7.38
2022-09-22T02:24:26.383Z,5.68
2022-09-22T02:26:53.735Z,4.15
2022-09-22T02:29:20.961Z,5.20
2022-09-22T02:31:48.614Z,5.25
2022-09-22T02:34:15.799Z,4.43
2022-09-22T02:36:51.450Z,4.18
2022-09-22T02:39:21.528Z,4.07
2022-09-22T02:42:11.224Z,4.68
2022-09-22T02:44:56.898Z,4.68
2022-09-22T02:47:32.344Z,6.40
2022-09-22T02:50:00.177Z,5.38
2022-09-22T02:52:27.607Z,5.55
2022-09-22T02:54:55.028Z,5.53
2022-09-22T02:57:22.177Z,4.20
2022-09-22T02:59:49.291Z,4.60
2022-09-22T03:02:16.431Z,5.13
2022-09-22T03:04:43.813Z,4.45
2022-09-22T03:07:11.051Z,5.18
2022-09-22T03:09:38.197Z,5.25
2022-09-22T03:12:05.581Z,3.80
2022-09-22T03:14:32.702Z,4.45
2022-09-22T03:16:59.991Z,5.43
2022-09-22T03:19:27.090Z,5.30
2022-09-22T03:21:54.222Z,5.90
2022-09-22T03:24:21.293Z,4.82
2022-09-22T03:26:48.539Z,5.07
2022-09-22T03:29:15.607Z,5.07
2022-09-22T03:31:42.799Z,4.30
2022-09-22T03:34:09.948Z,5.70
2022-09-22T03:36:37.113Z,4.53
2022-09-22T03:39:04.272Z,5.93
2022-09-22T03:41:31.936Z,4.75
2022-09-22T03:43:59.182Z,5.93
2022-09-22T03:46:26.880Z,5.28
2022-09-22T03:48:54.062Z,4.05
2022-09-22T03:51:21.365Z,5.25
2022-09-22T03:53:48.570Z,6.93
2022-09-22T03:56:16.659Z,5.18
2022-09-22T03:58:44.126Z,4.50
2022-09-22T04:01:11.563Z,6.75
2022-09-22T04:03:39.331Z,5.45
2022-09-22T04:06:06.561Z,4.03
2022-09-22T04:08:33.662Z,3.85
2022-09-22T04:11:01.748Z,3.58
2022-09-22T04:13:28.859Z,3.47
2022-09-22T04:15:56.363Z,5.15
2022-09-22T04:18:23.547Z,4.60
2022-09-22T04:20:51.335Z,5.47
2022-09-22T04:23:18.426Z,3.50
2022-09-22T04:25:45.544Z,5.00
2022-09-22T04:28:12.653Z,7.32
2022-09-22T04:30:39.976Z,3.42
2022-09-22T04:33:07.137Z,5.43
2022-09-22T04:35:34.615Z,4.30
2022-09-22T04:38:01.795Z,4.13
2022-09-22T04:40:29.584Z,3.67
2022-09-22T04:42:57.063Z,4.60
2022-09-22T04:45:24.577Z,6.03
2022-09-22T04:47:53.176Z,4.70
2022-09-22T04:50:21.323Z,4.90
2022-09-22T04:52:50.081Z,4.90
2022-09-22T04:55:17.952Z,4.00
2022-09-22T04:57:49.027Z,5.20
2022-09-22T05:00:16.707Z,4.80
2022-09-22T05:02:44.030Z,4.00
2022-09-22T05:05:11.211Z,4.32
2022-09-22T05:07:41.444Z,4.18
2022-09-22T05:10:08.762Z,5.30
2022-09-22T05:12:38.991Z,4.90
2022-09-22T05:15:06.343Z,4.47
2022-09-22T05:17:33.556Z,5.05
2022-09-22T05:20:00.894Z,5.75
2022-09-22T05:22:28.128Z,4.85
2022-09-22T05:24:55.331Z,5.32
2022-09-22T05:27:22.431Z,6.80
2022-09-22T05:29:49.542Z,5.60
2022-09-22T05:32:16.658Z,6.32
2022-09-22T05:34:43.753Z,6.05
2022-09-22T05:37:10.908Z,11.80
2022-09-22T05:39:38.047Z,6.07
2022-09-22T05:42:10.238Z,5.10
2022-09-22T05:44:38.049Z,5.43
2022-09-22T05:47:05.270Z,5.00
2022-09-22T05:49:32.457Z,6.00
2022-09-22T05:51:59.650Z,7.25
2022-09-22T05:54:26.753Z,6.65
2022-09-22T05:56:53.914Z,6.45
2022-09-22T05:59:21.082Z,6.65
2022-09-22T06:01:48.488Z,4.95
2022-09-22T06:04:15.724Z,6.43
2022-09-22T06:06:42.931Z,4.47
2022-09-22T06:09:10.031Z,4.85
2022-09-22T06:11:37.290Z,6.63
2022-09-22T06:14:04.371Z,7.65
2022-09-22T06:16:32.000Z,7.35
2022-09-22T06:18:59.098Z,7.70
2022-09-22T06:21:26.216Z,6.28
2022-09-22T06:23:53.386Z,8.65
2022-09-22T06:26:20.540Z,9.32
2022-09-22T06:28:47.602Z,7.97
2022-09-22T06:31:15.314Z,7.03
2022-09-22T06:33:48.198Z,6.50
2022-09-22T06:36:23.133Z,5.55
2022-09-22T06:38:50.887Z,7.20
2022-09-22T06:41:17.984Z,5.25
2022-09-22T06:43:47.858Z,6.13
2022-09-22T06:46:18.535Z,8.18
2022-09-22T06:48:45.721Z,6.28
2022-09-22T06:51:14.187Z,7.10
2022-09-22T06:53:41.331Z,7.28
2022-09-22T06:56:08.937Z,9.65
2022-09-22T06:58:58.728Z,6.25
2022-09-22T07:01:24.364Z,7.80
2022-09-22T07:03:52.412Z,5.60
2022-09-22T07:06:20.522Z,5.20
2022-09-22T07:08:48.339Z,8.30
2022-09-22T07:11:25.884Z,5.60
2022-09-22T07:13:54.086Z,6.55
2022-09-22T07:16:25.050Z,5.35
2022-09-22T07:18:53.942Z,4.88
2022-09-22T07:21:22.760Z,4.55
2022-09-22T07:23:50.324Z,5.13
2022-09-22T07:26:22.058Z,3.33
2022-09-22T07:28:52.198Z,4.90
2022-09-22T07:31:19.543Z,6.40
2022-09-22T07:33:46.966Z,4.88
2022-09-22T07:36:14.240Z,4.10
2022-09-22T07:38:42.743Z,3.10
2022-09-22T07:41:12.091Z,2.80
2022-09-22T07:43:39.771Z,5.22
2022-09-22T07:46:07.319Z,3.25
2022-09-22T07:48:36.203Z,3.15
2022-09-22T07:51:04.158Z,2.33
2022-09-22T07:53:31.690Z,5.60
2022-09-22T07:56:06.276Z,2.78
2022-09-22T07:58:34.016Z,4.00
2022-09-22T08:01:08.891Z,5.40
2022-09-22T08:03:38.023Z,2.28
2022-09-22T08:06:16.027Z,2.97
2022-09-22T08:08:47.679Z,22.52
2022-09-22T08:11:17.394Z,5.95
2022-09-22T08:13:49.329Z,3.33
2022-09-22T08:16:18.336Z,10.52
2022-09-22T08:18:45.887Z,3.15
2022-09-22T08:21:19.152Z,10.05
2022-09-22T08:23:46.560Z,2.63
2022-09-22T08:26:13.651Z,2.05
2022-09-22T08:28:40.897Z,2.15
2022-09-22T08:31:11.962Z,2.22
2022-09-22T08:33:40.686Z,2.40
2022-09-22T08:36:08.162Z,2.13
2022-09-22T08:38:35.442Z,4.85
2022-09-22T08:41:13.123Z,2.05
2022-09-22T08:43:55.400Z,3.22
2022-09-22T08:46:32.700Z,2.22
2022-09-22T08:49:37.305Z,3.10
2022-09-22T08:52:07.624Z,3.70
2022-09-22T08:54:35.463Z,3.08
2022-09-22T08:57:13.309Z,1.92
2022-09-22T08:59:45.349Z,3.38
2022-09-22T09:02:21.506Z,1.70
2022-09-22T09:05:07.193Z,4.00
2022-09-22T09:07:43.150Z,1.80
2022-09-22T09:10:25.595Z,2.15
2022-09-22T09:12:59.007Z,2.20
2022-09-22T09:15:38.166Z,1.50
2022-09-22T09:18:11.126Z,3.50
2022-09-22T09:20:44.302Z,2.75
2022-09-22T09:23:18.149Z,3.17
2022-09-22T09:25:47.196Z,4.25
2022-09-22T09:28:27.732Z,1.75
2022-09-22T09:30:57.235Z,1.60
2022-09-22T09:33:31.481Z,1.40
2022-09-22T09:38:35.815Z,2.20
2022-09-22T09:41:12.260Z,1.92
2022-09-22T09:43:43.042Z,2.90
2022-09-22T09:46:14.962Z,1.67
2022-09-22T09:48:58.674Z,2.80
2022-09-22T09:51:26.331Z,1.53
2022-09-22T09:53:54.946Z,2.90
2022-09-22T09:56:28.533Z,1.58
2022-09-22T09:59:15.682Z,1.20
2022-09-22T10:01:45.424Z,1.65
2022-09-22T10:04:35.920Z,1.08
2022-09-22T10:10:18.224Z,1.20
2022-09-22T10:12:45.342Z,1.27
2022-09-22T10:15:23.042Z,2.03
2022-09-22T10:17:50.294Z,2.58
2022-09-22T10:20:17.631Z,1.30
2022-09-22T10:22:45.463Z,1.38
2022-09-22T10:25:31.944Z,1.40
2022-09-22T10:28:03.526Z,1.05
2022-09-22T10:30:33.017Z,0.80
2022-09-22T10:33:09.197Z,2.40
2022-09-22T10:35:36.802Z,0.95
2022-09-22T10:38:13.594Z,0.98
2022-09-22T10:40:42.670Z,1.13
2022-09-22T10:43:21.508Z,0.90
2022-09-22T10:45:57.307Z,1.98
2022-09-22T10:48:40.906Z,0.77
2022-09-22T10:51:17.114Z,0.80
2022-09-22T10:53:56.616Z,0.95
2022-09-22T10:56:26.775Z,1.33
2022-09-22T10:58:53.871Z,2.05
2022-09-22T11:01:39.550Z,1.60
2022-09-22T11:04:25.746Z,0.98
2022-09-22T11:07:32.628Z,1.25
2022-09-22T11:10:41.905Z,0.90
2022-09-22T11:13:20.527Z,1.58
2022-09-22T11:15:54.285Z,0.98
2022-09-22T11:18:39.538Z,1.10
2022-09-22T11:21:07.326Z,3.20
2022-09-22T11:23:46.918Z,2.55
2022-09-22T11:26:29.247Z,1.30
2022-09-22T11:29:17.186Z,1.35
2022-09-22T11:31:53.578Z,2.10
2022-09-22T11:34:33.203Z,1.08
2022-09-22T11:37:00.484Z,2.10
2022-09-22T11:39:47.850Z,1.27
2022-09-22T11:42:36.189Z,1.58
2022-09-22T11:45:22.273Z,1.63
2022-09-22T11:48:08.490Z,3.35
2022-09-22T11:50:40.792Z,2.33
2022-09-22T11:53:27.080Z,2.90
2022-09-22T11:56:09.980Z,1.15
2022-09-22T11:58:41.046Z,1.30
2022-09-22T12:01:21.026Z,1.10
2022-09-22T12:04:10.031Z,2.15
2022-09-22T12:06:41.342Z,2.72
2022-09-22T12:09:13.834Z,2.83
2022-09-22T12:11:41.930Z,2.72
2022-09-22T12:14:13.667Z,1.20
2022-09-22T12:17:02.114Z,2.75
2022-09-22T12:19:32.435Z,2.15
2022-09-22T12:22:07.742Z,1.27
2022-09-22T12:24:36.116Z,0.80
2022-09-22T12:27:19.553Z,1.50
2022-09-22T12:29:46.881Z,0.98
2022-09-22T12:32:25.163Z,0.93
2022-09-22T12:34:53.179Z,2.75
2022-09-22T12:37:34.414Z,1.40
2022-09-22T12:40:07.203Z,1.30
2022-09-22T12:42:36.850Z,5.38
2022-09-22T12:45:19.335Z,0.95
2022-09-22T12:47:51.168Z,1.30
2022-09-22T12:50:24.628Z,1.73
2022-09-22T12:52:52.387Z,2.03
2022-09-22T12:55:22.147Z,1.52
2022-09-22T12:57:53.352Z,3.83
2022-09-22T13:00:25.017Z,1.20
2022-09-22T13:02:57.584Z,1.17
2022-09-22T13:05:28.125Z,1.27
2022-09-22T13:07:57.482Z,1.15
2022-09-22T13:10:24.895Z,1.98
2022-09-22T13:13:07.223Z,2.17
2022-09-22T13:15:47.603Z,0.82
2022-09-22T13:18:33.614Z,1.70
2022-09-22T13:21:02.162Z,1.48
2022-09-22T13:23:29.851Z,1.33
2022-09-22T13:26:05.558Z,2.70
2022-09-22T13:28:33.298Z,1.17
2022-09-22T13:31:06.278Z,1.52
2022-09-22T13:33:35.810Z,2.78
2022-09-22T13:36:13.996Z,1.55
2022-09-22T13:38:45.328Z,1.40
2022-09-22T13:41:32.737Z,2.53
2022-09-22T13:44:07.897Z,4.00
2022-09-22T13:46:41.016Z,1.67
2022-09-22T13:49:10.365Z,2.75
2022-09-22T13:51:37.580Z,3.05
2022-09-22T13:54:04.938Z,1.20
2022-09-22T13:56:32.725Z,2.88
2022-09-22T13:59:03.625Z,1.40
2022-09-22T14:01:31.320Z,1.48
2022-09-22T14:03:58.591Z,1.05
2022-09-22T14:06:27.740Z,2.85
2022-09-22T14:08:55.609Z,1.63
2022-09-22T14:14:12.751Z,1.33
2022-09-22T14:16:51.047Z,3.20
2022-09-22T14:19:33.239Z,1.75
2022-09-22T14:22:02.372Z,1.40
2022-09-22T14:24:32.200Z,2.25
2022-09-22T14:27:18.233Z,1.92
2022-09-22T14:29:48.034Z,3.08
2022-09-22T14:32:26.991Z,1.48
2022-09-22T14:35:00.181Z,1.73
2022-09-22T14:37:32.493Z,3.72
2022-09-22T14:40:01.766Z,1.50
2022-09-22T14:42:30.997Z,1.90
2022-09-22T14:45:10.396Z,1.30
2022-09-22T14:47:41.062Z,2.30
2022-09-22T14:50:19.145Z,2.10
2022-09-22T14:52:49.363Z,1.50
2022-09-22T14:55:24.940Z,1.58
2022-09-22T14:57:52.236Z,1.70
2022-09-22T15:00:38.437Z,2.53
2022-09-22T15:03:07.924Z,1.98
2022-09-22T15:05:36.131Z,1.67
2022-09-22T15:08:03.082Z,1.30
2022-09-22T15:10:35.301Z,1.75
2022-09-22T15:13:20.990Z,1.70
2022-09-22T15:15:49.946Z,1.48
2022-09-22T15:18:20.384Z,6.47
2022-09-22T15:20:52.605Z,1.48
2022-09-22T15:23:19.974Z,2.03
2022-09-22T15:25:47.654Z,2.72
2022-09-22T15:28:16.675Z,2.10
2022-09-22T15:30:46.626Z,3.65
2022-09-22T15:33:15.802Z,1.30
2022-09-22T15:35:45.500Z,1.15
2022-09-22T15:38:19.821Z,3.20
2022-09-22T15:40:47.510Z,1.00
2022-09-22T15:43:19.291Z,1.45
2022-09-22T15:45:50.662Z,2.25
2022-09-22T15:48:36.254Z,1.10
2022-09-22T15:51:05.631Z,2.60
2022-09-22T15:53:33.953Z,1.60
2022-09-22T15:56:03.564Z,2.00
2022-09-22T15:58:35.894Z,1.38
2022-09-22T16:01:03.549Z,4.03
2022-09-22T16:03:31.720Z,1.33
2022-09-22T16:06:01.455Z,1.75
2022-09-22T16:08:34.912Z,2.92
2022-09-22T16:11:05.600Z,2.00
2022-09-22T16:13:36.491Z,1.45
2022-09-22T16:16:03.921Z,1.65
2022-09-22T16:18:36.171Z,3.63
2022-09-22T16:21:05.034Z,2.05
2022-09-22T16:23:33.623Z,2.25
2022-09-22T16:26:01.188Z,2.47
2022-09-22T16:28:29.049Z,1.40
2022-09-22T16:30:56.859Z,2.17
2022-09-22T16:33:24.362Z,2.75
2022-09-22T16:35:51.447Z,2.60
2022-09-22T16:38:18.640Z,2.63
2022-09-22T16:40:45.832Z,2.20
2022-09-22T16:43:13.190Z,1.90
2022-09-22T16:45:58.851Z,4.20
2022-09-22T16:48:26.241Z,2.40
2022-09-22T16:50:54.719Z,1.42
2022-09-22T16:53:22.983Z,1.42
2022-09-22T16:55:50.083Z,1.23
2022-09-22T16:58:17.343Z,1.50
2022-09-22T17:00:44.540Z,1.38
2022-09-22T17:03:11.662Z,1.70
2022-09-22T17:05:39.692Z,2.05
2022-09-22T17:08:08.511Z,1.67
2022-09-22T17:10:35.712Z,2.55
2022-09-22T17:13:04.723Z,4.38
2022-09-22T17:15:36.027Z,3.05
2022-09-22T17:18:04.126Z,2.20
2022-09-22T17:20:31.326Z,3.63
2022-09-22T17:22:58.518Z,2.05
2022-09-22T17:25:28.995Z,1.52
2022-09-22T17:27:56.598Z,2.45
2022-09-22T17:30:23.809Z,2.42
2022-09-22T17:32:51.276Z,1.98
2022-09-22T17:35:18.412Z,3.17
2022-09-22T17:37:47.260Z,2.55
2022-09-22T17:40:14.561Z,1.55
2022-09-22T17:42:41.700Z,3.10
2022-09-22T17:45:09.300Z,2.40
2022-09-22T17:47:55.320Z,3.30
2022-09-22T17:50:41.310Z,3.38
2022-09-22T17:53:27.927Z,2.92
2022-09-22T17:55:55.145Z,2.33
2022-09-22T17:58:22.727Z,3.20
2022-09-22T18:00:50.990Z,2.38
2022-09-22T18:03:18.240Z,2.38
2022-09-22T18:05:52.510Z,2.85
2022-09-22T18:08:19.735Z,2.50
2022-09-22T18:10:47.171Z,2.85
2022-09-22T18:13:14.264Z,3.03
2022-09-22T18:15:41.877Z,3.05
2022-09-22T18:18:09.079Z,3.72
2022-09-22T18:20:36.204Z,2.53
2022-09-22T18:23:03.626Z,3.47
2022-09-22T18:25:33.844Z,3.38
2022-09-22T18:28:01.068Z,4.50
2022-09-22T18:30:28.348Z,4.68
2022-09-22T18:32:56.194Z,4.60
2022-09-22T18:35:24.430Z,4.65
2022-09-22T18:37:51.729Z,3.17
2022-09-22T18:40:18.976Z,5.40
2022-09-22T18:42:46.147Z,4.43
2022-09-22T18:45:14.124Z,7.05
2022-09-22T18:47:43.251Z,4.70
2022-09-22T18:50:11.271Z,5.78
2022-09-22T18:52:42.564Z,5.38
2022-09-22T18:55:09.936Z,4.95
2022-09-22T18:57:37.700Z,5.78
2022-09-22T19:00:05.007Z,6.90
2022-09-22T19:02:32.238Z,4.93
2022-09-22T19:04:59.386Z,5.40
2022-09-22T19:07:42.448Z,6.95
2022-09-22T19:10:12.070Z,5.40
2022-09-22T19:12:42.671Z,5.60
2022-09-22T19:15:15.467Z,5.78
2022-09-22T19:17:46.948Z,6.07
2022-09-22T19:20:15.644Z,7.22
2022-09-22T19:22:42.923Z,6.35
2022-09-22T19:25:10.472Z,5.95
2022-09-22T19:27:39.583Z,7.18
2022-09-22T19:30:06.999Z,5.88
2022-09-22T19:32:34.163Z,9.57
2022-09-22T19:35:01.274Z,8.35
2022-09-22T19:37:29.298Z,6.38
2022-09-22T19:39:56.746Z,8.75
2022-09-22T19:42:24.134Z,6.72
2022-09-22T19:44:51.225Z,9.90
2022-09-22T19:47:19.571Z,10.30
2022-09-22T19:49:46.675Z,7.40
2022-09-22T19:52:13.812Z,6.78
2022-09-22T19:54:40.983Z,5.95
2022-09-22T19:57:08.111Z,6.07
2022-09-22T19:59:35.255Z,5.70
2022-09-22T20:02:03.765Z,6.63
2022-09-22T20:04:34.280Z,7.35
2022-09-22T20:07:01.548Z,8.15
2022-09-22T20:09:28.672Z,11.13
2022-09-22T20:11:55.803Z,9.38
2022-09-22T20:14:23.643Z,11.55
2022-09-22T20:16:52.267Z,8.68
2022-09-22T20:19:19.815Z,9.45
2022-09-22T20:21:47.650Z,13.43
2022-09-22T20:24:16.321Z,11.23
2022-09-22T20:26:45.025Z,10.13
2022-09-22T20:29:13.153Z,12.93
2022-09-22T20:31:40.871Z,12.15
2022-09-22T20:34:08.357Z,11.93
2022-09-22T20:36:37.209Z,11.18
2022-09-22T20:39:05.215Z,15.93
2022-09-22T20:41:32.476Z,13.05
2022-09-22T20:43:59.661Z,11.65
2022-09-22T20:46:26.866Z,11.30
2022-09-22T20:48:55.351Z,11.90
2022-09-22T20:51:23.504Z,11.90
2022-09-22T20:53:50.663Z,11.80
2022-09-22T20:56:18.063Z,11.80
2022-09-22T20:58:46.233Z,10.98
2022-09-22T21:01:15.075Z,11.90
2022-09-22T21:03:42.599Z,12.90
2022-09-22T21:06:10.977Z,10.75
2022-09-22T21:08:58.067Z,12.80
2022-09-22T21:11:28.800Z,12.85
2022-09-22T21:13:58.736Z,11.27
2022-09-22T21:16:25.836Z,13.55
2022-09-22T21:18:53.210Z,13.32
2022-09-22T21:21:22.286Z,10.40
2022-09-22T21:23:49.755Z,11.20
2022-09-22T21:26:18.440Z,9.18
2022-09-22T21:28:48.976Z,10.18
2022-09-22T21:31:16.142Z,11.52
2022-09-22T21:33:43.486Z,9.30
2022-09-22T21:36:14.985Z,12.55
2022-09-22T21:38:43.045Z,11.57
2022-09-22T21:41:12.156Z,11.35
2022-09-22T21:43:39.448Z,11.88
2022-09-22T21:46:08.861Z,10.38
2022-09-22T21:48:36.355Z,10.60
2022-09-22T21:51:05.231Z,15.50
2022-09-22T21:53:32.820Z,11.15
2022-09-22T21:56:01.589Z,10.02
2022-09-22T21:58:29.952Z,11.15
2022-09-22T22:00:57.735Z,11.45
2022-09-22T22:03:30.963Z,15.30
2022-09-22T22:06:06.423Z,13.60
2022-09-22T22:08:41.367Z,10.93
2022-09-22T22:11:10.257Z,10.13
2022-09-22T22:13:38.656Z,10.65
2022-09-22T22:16:11.552Z,11.65
2022-09-22T22:18:39.344Z,14.15
2022-09-22T22:21:09.243Z,10.68
2022-09-22T22:23:37.782Z,12.38
2022-09-22T22:26:13.207Z,13.55
2022-09-22T22:28:44.352Z,10.65
2022-09-22T22:31:12.805Z,10.18
2022-09-22T22:33:40.893Z,10.45
2022-09-22T22:36:08.879Z,12.40
2022-09-22T22:38:36.865Z,12.15
2022-09-22T22:41:05.220Z,9.65
2022-09-22T22:43:32.470Z,12.10
2022-09-22T22:46:00.237Z,10.73
2022-09-22T22:48:27.982Z,9.45
2022-09-22T22:50:55.712Z,9.30
2022-09-22T22:53:22.862Z,10.18
2022-09-22T22:55:54.947Z,10.55
2022-09-22T22:58:22.457Z,9.27
2022-09-22T23:00:49.575Z,10.00
2022-09-22T23:03:16.781Z,9.88
2022-09-22T23:05:54.976Z,10.55
2022-09-22T23:08:22.137Z,8.88
2022-09-22T23:10:49.226Z,8.95
2022-09-22T23:13:16.786Z,12.30
2022-09-22T23:15:45.562Z,10.85
2022-09-22T23:18:13.956Z,11.27
2022-09-22T23:20:42.629Z,8.88
2022-09-22T23:23:11.458Z,13.68
2022-09-22T23:25:38.567Z,9.80
2022-09-22T23:28:07.298Z,8.95
2022-09-22T23:30:34.718Z,10.30
2022-09-22T23:33:01.857Z,8.63
2022-09-22T23:35:29.111Z,12.27
2022-09-22T23:37:56.888Z,9.93
2022-09-22T23:40:24.089Z,7.85
2022-09-22T23:42:51.597Z,9.55
2022-09-22T23:45:21.051Z,9.80
2022-09-22T23:47:48.199Z,8.77
2022-09-22T23:50:15.305Z,9.45
2022-09-22T23:52:42.419Z,7.95
2022-09-22T23:55:09.717Z,9.27
2022-09-22T23:57:37.064Z,10.05
